Flight Information

DEPARTURE
LOS ANGELES, CA
Elevation:
127
Runways:
6R/24L - 10885x150 - CONC-G
7L/25R - 12923x150 - CONC-G
7R/25L - 11095x200 - ASPH-CONC-G
6L/24R - 8926x150 - ASPH-CONC-G
ATIS:
ARR 133.8 DEP 135.65 310-646-2297
Clearance Delivery:
120.35
Ground:
121.75 (S. complex) 121.65 (N. complex)
Tower:
133.9 (N. complex), 120.95 (S. complex) 119.8
DESTINATION
,
Elevation:
TPA:
1000 (est.)


6794.5 NM73° True-14° Var59° HDG

Flight Plan:
(click to file on line)

1. Type
2. Aircraft Identification
3. Aircraft Type / Special Equipment
4. True Airspeed
kts
5. Departure Airport
(ICAO code)
6. Arriving Airport
(ICAO code)
7. Cruising Altitude
ft
8. Alternate Airport
(ICAO code)
9. Route of Flight
10. Remarks


00:00:00 Departure ATIS: Destination ATIS:

Clearance Limit:
Route:
Altitude: Expect in minutes
Frequency:
Transponder: (7500 Hijack / 7600 Lost Comms / 7700 Emergency)


KLAX 261431Z 32005KT 2 1/2SM HZ SCT004 18/16 A2998 RMK AO2 T01830156
Time: 2022-06-26T14:31:00Z
1656254711
Winds: 320 @ 5 kts
Visibility: 2.5 sm
Clouds (AGL): SCT 400
Temperature: 18.3 C
Dew Point: 15.6 C
Pressure: 29.97933 in Hgbr


Notes:

Data extracted from FAA Digital Chart Supplement. Effective: 0901Z Thursday, 27 JAN 2022 to 0900z Thursday, 24 MAR 2022
Current ATIS data is provided courtisy of PilotEdge.